sensor_id;sensor_type;location;lat;lon;timestamp;temperature;humidity
48936;DHT22;34745;52.276;10.528;2022-10-30T00:01:01;16.50;1.00
48936;DHT22;34745;52.276;10.528;2022-10-30T00:03:28;16.50;1.00
48936;DHT22;34745;52.276;10.528;2022-10-30T00:05:55;16.50;1.00
48936;DHT22;34745;52.276;10.528;2022-10-30T00:08:23;16.50;1.00
48936;DHT22;34745;52.276;10.528;2022-10-30T00:10:52;16.50;1.00
48936;DHT22;34745;52.276;10.528;2022-10-30T00:13:20;16.50;1.00
48936;DHT22;34745;52.276;10.528;2022-10-30T00:15:51;16.50;1.00
48936;DHT22;34745;52.276;10.528;2022-10-30T00:18:19;16.50;1.00
48936;DHT22;34745;52.276;10.528;2022-10-30T00:20:46;16.50;1.00
48936;DHT22;34745;52.276;10.528;2022-10-30T00:23:14;16.50;1.00
48936;DHT22;34745;52.276;10.528;2022-10-30T00:25:42;16.50;1.00
48936;DHT22;34745;52.276;10.528;2022-10-30T00:28:09;16.50;1.00
48936;DHT22;34745;52.276;10.528;2022-10-30T00:30:36;16.50;1.00
48936;DHT22;34745;52.276;10.528;2022-10-30T00:33:05;16.40;1.00
48936;DHT22;34745;52.276;10.528;2022-10-30T00:35:32;16.40;1.00
48936;DHT22;34745;52.276;10.528;2022-10-30T00:38:00;16.40;1.00
48936;DHT22;34745;52.276;10.528;2022-10-30T00:40:28;16.40;1.00
48936;DHT22;34745;52.276;10.528;2022-10-30T00:42:55;16.40;1.00
48936;DHT22;34745;52.276;10.528;2022-10-30T00:45:22;16.50;1.00
48936;DHT22;34745;52.276;10.528;2022-10-30T00:47:52;16.40;1.00
48936;DHT22;34745;52.276;10.528;2022-10-30T00:50:25;16.50;1.00
48936;DHT22;34745;52.276;10.528;2022-10-30T00:53:00;16.50;1.00
48936;DHT22;34745;52.276;10.528;2022-10-30T00:55:30;16.50;1.00
48936;DHT22;34745;52.276;10.528;2022-10-30T00:58:00;16.50;1.00
48936;DHT22;34745;52.276;10.528;2022-10-30T01:00:30;16.50;1.00
48936;DHT22;34745;52.276;10.528;2022-10-30T01:02:57;16.50;1.00
48936;DHT22;34745;52.276;10.528;2022-10-30T01:05:27;16.50;1.00
48936;DHT22;34745;52.276;10.528;2022-10-30T01:07:57;16.50;1.00
48936;DHT22;34745;52.276;10.528;2022-10-30T01:10:24;16.60;1.00
48936;DHT22;34745;52.276;10.528;2022-10-30T01:12:52;16.60;1.00
48936;DHT22;34745;52.276;10.528;2022-10-30T01:15:25;16.60;1.00
48936;DHT22;34745;52.276;10.528;2022-10-30T01:18:24;16.70;1.00
48936;DHT22;34745;52.276;10.528;2022-10-30T01:21:06;16.50;1.00
48936;DHT22;34745;52.276;10.528;2022-10-30T01:23:42;16.70;1.00
48936;DHT22;34745;52.276;10.528;2022-10-30T01:26:18;16.50;1.00
48936;DHT22;34745;52.276;10.528;2022-10-30T01:28:58;16.50;1.00
48936;DHT22;34745;52.276;10.528;2022-10-30T01:31:40;16.50;1.00
48936;DHT22;34745;52.276;10.528;2022-10-30T01:34:17;16.40;1.00
48936;DHT22;34745;52.276;10.528;2022-10-30T01:36:49;16.40;1.00
48936;DHT22;34745;52.276;10.528;2022-10-30T01:39:20;16.40;1.00
48936;DHT22;34745;52.276;10.528;2022-10-30T01:41:48;16.50;1.00
48936;DHT22;34745;52.276;10.528;2022-10-30T01:44:17;16.40;1.00
48936;DHT22;34745;52.276;10.528;2022-10-30T01:47:04;16.40;1.00
48936;DHT22;34745;52.276;10.528;2022-10-30T01:52:37;16.30;1.00
48936;DHT22;34745;52.276;10.528;2022-10-30T01:55:16;16.30;1.00
48936;DHT22;34745;52.276;10.528;2022-10-30T01:57:50;16.30;1.00
48936;DHT22;34745;52.276;10.528;2022-10-30T02:00:20;16.30;1.00
48936;DHT22;34745;52.276;10.528;2022-10-30T02:02:49;16.30;1.00
48936;DHT22;34745;52.276;10.528;2022-10-30T02:05:24;16.30;1.00
48936;DHT22;34745;52.276;10.528;2022-10-30T02:07:54;16.30;1.00
48936;DHT22;34745;52.276;10.528;2022-10-30T02:10:22;16.30;1.00
48936;DHT22;34745;52.276;10.528;2022-10-30T02:12:49;16.30;1.00
48936;DHT22;34745;52.276;10.528;2022-10-30T02:15:16;16.20;1.00
48936;DHT22;34745;52.276;10.528;2022-10-30T02:17:44;16.10;1.00
48936;DHT22;34745;52.276;10.528;2022-10-30T02:20:16;16.10;1.00
48936;DHT22;34745;52.276;10.528;2022-10-30T02:22:44;16.10;1.00
48936;DHT22;34745;52.276;10.528;2022-10-30T02:28:22;16.00;1.00
48936;DHT22;34745;52.276;10.528;2022-10-30T02:30:49;16.00;1.00
48936;DHT22;34745;52.276;10.528;2022-10-30T02:33:17;15.80;1.00
48936;DHT22;34745;52.276;10.528;2022-10-30T02:35:50;16.00;1.00
48936;DHT22;34745;52.276;10.528;2022-10-30T02:38:17;15.80;1.00
48936;DHT22;34745;52.276;10.528;2022-10-30T02:40:44;15.80;1.00
48936;DHT22;34745;52.276;10.528;2022-10-30T02:43:11;15.80;1.00
48936;DHT22;34745;52.276;10.528;2022-10-30T02:45:38;15.80;1.00
48936;DHT22;34745;52.276;10.528;2022-10-30T02:48:05;15.70;1.00
48936;DHT22;34745;52.276;10.528;2022-10-30T02:50:33;15.70;1.00
48936;DHT22;34745;52.276;10.528;2022-10-30T02:53:01;15.70;1.00
48936;DHT22;34745;52.276;10.528;2022-10-30T02:55:28;15.80;1.00
48936;DHT22;34745;52.276;10.528;2022-10-30T02:57:56;15.80;1.00
48936;DHT22;34745;52.276;10.528;2022-10-30T03:00:23;15.80;1.00
48936;DHT22;34745;52.276;10.528;2022-10-30T03:02:54;15.80;1.00
48936;DHT22;34745;52.276;10.528;2022-10-30T03:05:21;15.80;1.00
48936;DHT22;34745;52.276;10.528;2022-10-30T03:07:49;15.80;1.00
48936;DHT22;34745;52.276;10.528;2022-10-30T03:10:18;15.90;1.00
48936;DHT22;34745;52.276;10.528;2022-10-30T03:12:45;15.80;1.00
48936;DHT22;34745;52.276;10.528;2022-10-30T03:15:12;15.80;1.00
48936;DHT22;34745;52.276;10.528;2022-10-30T03:17:39;15.80;1.00
48936;DHT22;34745;52.276;10.528;2022-10-30T03:20:12;15.80;1.00
48936;DHT22;34745;52.276;10.528;2022-10-30T03:22:38;15.80;1.00
48936;DHT22;34745;52.276;10.528;2022-10-30T03:25:06;15.80;1.00
48936;DHT22;34745;52.276;10.528;2022-10-30T03:27:34;15.70;1.00
48936;DHT22;34745;52.276;10.528;2022-10-30T03:30:02;15.70;1.00
48936;DHT22;34745;52.276;10.528;2022-10-30T03:32:29;15.70;1.00
48936;DHT22;34745;52.276;10.528;2022-10-30T03:34:56;15.70;1.00
48936;DHT22;34745;52.276;10.528;2022-10-30T03:37:23;15.70;1.00
48936;DHT22;34745;52.276;10.528;2022-10-30T03:39:50;15.70;1.00
48936;DHT22;34745;52.276;10.528;2022-10-30T03:42:17;15.70;1.00
48936;DHT22;34745;52.276;10.528;2022-10-30T03:44:46;15.60;1.00
48936;DHT22;34745;52.276;10.528;2022-10-30T03:47:13;15.50;1.00
48936;DHT22;34745;52.276;10.528;2022-10-30T03:49:40;15.50;1.00
48936;DHT22;34745;52.276;10.528;2022-10-30T03:52:07;15.50;1.00
48936;DHT22;34745;52.276;10.528;2022-10-30T03:54:34;15.40;1.00
48936;DHT22;34745;52.276;10.528;2022-10-30T03:57:00;15.40;1.00
48936;DHT22;34745;52.276;10.528;2022-10-30T03:59:28;15.40;1.00
48936;DHT22;34745;52.276;10.528;2022-10-30T04:01:56;15.40;1.00
48936;DHT22;34745;52.276;10.528;2022-10-30T04:04:24;15.40;1.00
48936;DHT22;34745;52.276;10.528;2022-10-30T04:06:50;15.40;1.00
48936;DHT22;34745;52.276;10.528;2022-10-30T04:09:18;15.50;1.00
48936;DHT22;34745;52.276;10.528;2022-10-30T04:11:45;15.50;1.00
48936;DHT22;34745;52.276;10.528;2022-10-30T04:14:12;15.60;1.00
48936;DHT22;34745;52.276;10.528;2022-10-30T04:16:39;15.70;1.00
48936;DHT22;34745;52.276;10.528;2022-10-30T04:19:07;15.80;1.00
48936;DHT22;34745;52.276;10.528;2022-10-30T04:21:34;15.90;1.00
48936;DHT22;34745;52.276;10.528;2022-10-30T04:24:02;15.90;1.00
48936;DHT22;34745;52.276;10.528;2022-10-30T04:26:29;16.00;1.00
48936;DHT22;34745;52.276;10.528;2022-10-30T04:28:57;16.00;1.00
48936;DHT22;34745;52.276;10.528;2022-10-30T04:31:24;16.00;1.00
48936;DHT22;34745;52.276;10.528;2022-10-30T04:33:51;16.00;1.00
48936;DHT22;34745;52.276;10.528;2022-10-30T04:36:20;16.00;1.00
48936;DHT22;34745;52.276;10.528;2022-10-30T04:38:50;16.10;1.00
48936;DHT22;34745;52.276;10.528;2022-10-30T04:41:17;16.10;1.00
48936;DHT22;34745;52.276;10.528;2022-10-30T04:43:44;16.10;1.00
48936;DHT22;34745;52.276;10.528;2022-10-30T04:46:13;16.10;1.00
48936;DHT22;34745;52.276;10.528;2022-10-30T04:48:40;16.10;1.00
48936;DHT22;34745;52.276;10.528;2022-10-30T04:51:07;16.20;1.00
48936;DHT22;34745;52.276;10.528;2022-10-30T04:53:37;16.10;1.00
48936;DHT22;34745;52.276;10.528;2022-10-30T04:56:04;16.10;1.00
48936;DHT22;34745;52.276;10.528;2022-10-30T04:58:31;16.20;1.00
48936;DHT22;34745;52.276;10.528;2022-10-30T05:01:00;16.20;1.00
48936;DHT22;34745;52.276;10.528;2022-10-30T05:03:29;16.20;1.00
48936;DHT22;34745;52.276;10.528;2022-10-30T05:05:57;16.10;1.00
48936;DHT22;34745;52.276;10.528;2022-10-30T05:08:25;16.10;1.00
48936;DHT22;34745;52.276;10.528;2022-10-30T05:10:53;16.10;1.00
48936;DHT22;34745;52.276;10.528;2022-10-30T05:13:21;16.10;1.00
48936;DHT22;34745;52.276;10.528;2022-10-30T05:15:49;16.00;1.00
48936;DHT22;34745;52.276;10.528;2022-10-30T05:18:16;16.10;1.00
48936;DHT22;34745;52.276;10.528;2022-10-30T05:20:45;16.00;1.00
48936;DHT22;34745;52.276;10.528;2022-10-30T05:23:12;16.00;1.00
48936;DHT22;34745;52.276;10.528;2022-10-30T05:25:39;16.00;1.00
48936;DHT22;34745;52.276;10.528;2022-10-30T05:28:08;16.00;1.00
48936;DHT22;34745;52.276;10.528;2022-10-30T05:30:36;16.00;1.00
48936;DHT22;34745;52.276;10.528;2022-10-30T05:33:04;16.10;1.00
48936;DHT22;34745;52.276;10.528;2022-10-30T05:35:33;16.00;1.00
48936;DHT22;34745;52.276;10.528;2022-10-30T05:38:01;16.00;1.00
48936;DHT22;34745;52.276;10.528;2022-10-30T05:40:29;16.00;1.00
48936;DHT22;34745;52.276;10.528;2022-10-30T05:42:56;16.00;1.00
48936;DHT22;34745;52.276;10.528;2022-10-30T05:45:25;16.00;1.00
48936;DHT22;34745;52.276;10.528;2022-10-30T05:47:55;16.00;1.00
48936;DHT22;34745;52.276;10.528;2022-10-30T05:50:24;16.00;1.00
48936;DHT22;34745;52.276;10.528;2022-10-30T05:52:54;16.10;1.00
48936;DHT22;34745;52.276;10.528;2022-10-30T05:55:21;16.10;1.00
48936;DHT22;34745;52.276;10.528;2022-10-30T05:57:48;16.10;1.00
48936;DHT22;34745;52.276;10.528;2022-10-30T06:00:16;16.00;1.00
48936;DHT22;34745;52.276;10.528;2022-10-30T06:02:44;16.10;1.00
48936;DHT22;34745;52.276;10.528;2022-10-30T06:05:11;16.10;1.00
48936;DHT22;34745;52.276;10.528;2022-10-30T06:07:38;16.10;1.00
48936;DHT22;34745;52.276;10.528;2022-10-30T06:10:06;16.10;1.00
48936;DHT22;34745;52.276;10.528;2022-10-30T06:12:33;16.10;1.00
48936;DHT22;34745;52.276;10.528;2022-10-30T06:15:00;16.10;1.00
48936;DHT22;34745;52.276;10.528;2022-10-30T06:17:29;16.10;1.00
48936;DHT22;34745;52.276;10.528;2022-10-30T06:19:57;16.10;1.00
48936;DHT22;34745;52.276;10.528;2022-10-30T06:22:24;16.20;1.00
48936;DHT22;34745;52.276;10.528;2022-10-30T06:24:51;16.20;1.00
48936;DHT22;34745;52.276;10.528;2022-10-30T06:27:18;16.20;1.00
48936;DHT22;34745;52.276;10.528;2022-10-30T06:29:45;16.30;1.00
48936;DHT22;34745;52.276;10.528;2022-10-30T06:32:12;16.30;1.00
48936;DHT22;34745;52.276;10.528;2022-10-30T06:34:39;16.30;1.00
48936;DHT22;34745;52.276;10.528;2022-10-30T06:37:09;16.30;1.00
48936;DHT22;34745;52.276;10.528;2022-10-30T06:39:37;16.60;1.00
48936;DHT22;34745;52.276;10.528;2022-10-30T06:42:04;16.50;1.00
48936;DHT22;34745;52.276;10.528;2022-10-30T06:44:32;16.50;1.00
48936;DHT22;34745;52.276;10.528;2022-10-30T06:46:59;16.50;1.00
48936;DHT22;34745;52.276;10.528;2022-10-30T06:49:26;16.50;1.00
48936;DHT22;34745;52.276;10.528;2022-10-30T06:51:53;16.60;1.00
48936;DHT22;34745;52.276;10.528;2022-10-30T06:54:21;16.60;1.00
48936;DHT22;34745;52.276;10.528;2022-10-30T06:56:49;16.50;1.00
48936;DHT22;34745;52.276;10.528;2022-10-30T06:59:17;16.50;1.00
48936;DHT22;34745;52.276;10.528;2022-10-30T07:01:44;16.50;1.00
48936;DHT22;34745;52.276;10.528;2022-10-30T07:04:11;16.50;1.00
48936;DHT22;34745;52.276;10.528;2022-10-30T07:06:38;16.50;1.00
48936;DHT22;34745;52.276;10.528;2022-10-30T07:09:05;16.50;1.00
48936;DHT22;34745;52.276;10.528;2022-10-30T07:11:34;16.50;1.00
48936;DHT22;34745;52.276;10.528;2022-10-30T07:14:01;16.60;1.00
48936;DHT22;34745;52.276;10.528;2022-10-30T07:16:29;16.60;1.00
48936;DHT22;34745;52.276;10.528;2022-10-30T07:18:55;16.60;1.00
48936;DHT22;34745;52.276;10.528;2022-10-30T07:21:27;16.60;1.00
48936;DHT22;34745;52.276;10.528;2022-10-30T07:23:55;16.70;1.00
48936;DHT22;34745;52.276;10.528;2022-10-30T07:26:22;16.70;1.00
48936;DHT22;34745;52.276;10.528;2022-10-30T07:28:50;16.70;1.00
48936;DHT22;34745;52.276;10.528;2022-10-30T07:31:17;16.70;1.00
48936;DHT22;34745;52.276;10.528;2022-10-30T07:34:04;16.80;1.00
48936;DHT22;34745;52.276;10.528;2022-10-30T07:36:31;16.80;1.00
48936;DHT22;34745;52.276;10.528;2022-10-30T07:38:58;16.90;1.00
48936;DHT22;34745;52.276;10.528;2022-10-30T07:41:25;16.90;1.00
48936;DHT22;34745;52.276;10.528;2022-10-30T07:43:53;16.90;1.00
48936;DHT22;34745;52.276;10.528;2022-10-30T07:46:20;16.90;1.00
48936;DHT22;34745;52.276;10.528;2022-10-30T07:48:47;16.90;1.00
48936;DHT22;34745;52.276;10.528;2022-10-30T07:51:14;17.00;1.00
48936;DHT22;34745;52.276;10.528;2022-10-30T07:53:41;17.00;1.00
48936;DHT22;34745;52.276;10.528;2022-10-30T07:56:08;17.00;1.00
48936;DHT22;34745;52.276;10.528;2022-10-30T07:58:36;17.10;1.00
48936;DHT22;34745;52.276;10.528;2022-10-30T08:01:12;17.20;1.00
48936;DHT22;34745;52.276;10.528;2022-10-30T08:03:39;17.20;1.00
48936;DHT22;34745;52.276;10.528;2022-10-30T08:06:06;17.20;1.00
48936;DHT22;34745;52.276;10.528;2022-10-30T08:08:38;17.30;1.00
48936;DHT22;34745;52.276;10.528;2022-10-30T08:11:09;17.30;1.00
48936;DHT22;34745;52.276;10.528;2022-10-30T08:13:36;17.30;1.00
48936;DHT22;34745;52.276;10.528;2022-10-30T08:16:03;17.30;1.00
48936;DHT22;34745;52.276;10.528;2022-10-30T08:18:32;17.40;1.00
48936;DHT22;34745;52.276;10.528;2022-10-30T08:20:59;17.50;1.00
48936;DHT22;34745;52.276;10.528;2022-10-30T08:23:26;17.50;1.00
48936;DHT22;34745;52.276;10.528;2022-10-30T08:25:56;17.50;1.00
48936;DHT22;34745;52.276;10.528;2022-10-30T08:28:23;17.60;1.00
48936;DHT22;34745;52.276;10.528;2022-10-30T08:30:57;17.60;1.00
48936;DHT22;34745;52.276;10.528;2022-10-30T08:33:24;17.70;1.00
48936;DHT22;34745;52.276;10.528;2022-10-30T08:35:55;17.70;1.00
48936;DHT22;34745;52.276;10.528;2022-10-30T08:38:23;17.80;1.00
48936;DHT22;34745;52.276;10.528;2022-10-30T08:40:50;17.80;1.00
48936;DHT22;34745;52.276;10.528;2022-10-30T08:43:18;17.90;1.00
48936;DHT22;34745;52.276;10.528;2022-10-30T08:45:46;18.00;1.00
48936;DHT22;34745;52.276;10.528;2022-10-30T08:48:14;18.00;1.00
48936;DHT22;34745;52.276;10.528;2022-10-30T08:50:42;18.10;1.00
48936;DHT22;34745;52.276;10.528;2022-10-30T08:53:12;18.20;1.00
48936;DHT22;34745;52.276;10.528;2022-10-30T08:55:40;18.20;1.00
48936;DHT22;34745;52.276;10.528;2022-10-30T08:58:07;18.30;1.00
48936;DHT22;34745;52.276;10.528;2022-10-30T09:00:34;18.30;1.00
48936;DHT22;34745;52.276;10.528;2022-10-30T09:03:01;18.40;1.00
48936;DHT22;34745;52.276;10.528;2022-10-30T09:05:29;18.50;1.00
48936;DHT22;34745;52.276;10.528;2022-10-30T09:07:57;18.50;1.00
48936;DHT22;34745;52.276;10.528;2022-10-30T09:10:29;18.60;1.00
48936;DHT22;34745;52.276;10.528;2022-10-30T09:12:57;18.70;1.00
48936;DHT22;34745;52.276;10.528;2022-10-30T09:15:25;18.70;1.00
48936;DHT22;34745;52.276;10.528;2022-10-30T09:17:56;18.80;1.00
48936;DHT22;34745;52.276;10.528;2022-10-30T09:20:25;18.90;1.00
48936;DHT22;34745;52.276;10.528;2022-10-30T09:22:53;18.90;1.00
48936;DHT22;34745;52.276;10.528;2022-10-30T09:25:20;18.90;1.00
48936;DHT22;34745;52.276;10.528;2022-10-30T09:27:48;18.90;1.00
48936;DHT22;34745;52.276;10.528;2022-10-30T09:30:15;19.00;1.00
48936;DHT22;34745;52.276;10.528;2022-10-30T09:32:42;19.00;1.00
48936;DHT22;34745;52.276;10.528;2022-10-30T09:35:09;19.00;1.00
48936;DHT22;34745;52.276;10.528;2022-10-30T09:37:37;19.10;1.00
48936;DHT22;34745;52.276;10.528;2022-10-30T09:40:06;19.20;1.00
48936;DHT22;34745;52.276;10.528;2022-10-30T09:42:41;19.30;1.00
48936;DHT22;34745;52.276;10.528;2022-10-30T09:48:46;19.40;1.00
48936;DHT22;34745;52.276;10.528;2022-10-30T09:51:35;19.40;1.00
48936;DHT22;34745;52.276;10.528;2022-10-30T09:54:11;19.50;1.00
48936;DHT22;34745;52.276;10.528;2022-10-30T09:56:44;19.60;1.00
48936;DHT22;34745;52.276;10.528;2022-10-30T09:59:25;19.70;1.00
48936;DHT22;34745;52.276;10.528;2022-10-30T10:02:00;19.80;1.00
48936;DHT22;34745;52.276;10.528;2022-10-30T10:04:37;20.10;1.00
48936;DHT22;34745;52.276;10.528;2022-10-30T10:07:16;20.40;1.00
48936;DHT22;34745;52.276;10.528;2022-10-30T10:09:47;20.90;1.00
48936;DHT22;34745;52.276;10.528;2022-10-30T10:12:22;21.40;1.00
48936;DHT22;34745;52.276;10.528;2022-10-30T10:14:52;21.90;1.00
48936;DHT22;34745;52.276;10.528;2022-10-30T10:17:26;22.40;1.00
48936;DHT22;34745;52.276;10.528;2022-10-30T10:19:58;22.80;1.00
48936;DHT22;34745;52.276;10.528;2022-10-30T10:22:29;22.80;1.00
48936;DHT22;34745;52.276;10.528;2022-10-30T10:25:02;23.10;1.00
48936;DHT22;34745;52.276;10.528;2022-10-30T10:27:43;23.10;1.00
48936;DHT22;34745;52.276;10.528;2022-10-30T10:30:15;23.10;1.00
48936;DHT22;34745;52.276;10.528;2022-10-30T10:33:08;23.00;1.00
48936;DHT22;34745;52.276;10.528;2022-10-30T10:35:52;23.00;1.00
48936;DHT22;34745;52.276;10.528;2022-10-30T10:38:32;23.10;1.00
48936;DHT22;34745;52.276;10.528;2022-10-30T10:41:09;22.60;1.00
48936;DHT22;34745;52.276;10.528;2022-10-30T10:43:50;22.30;1.00
48936;DHT22;34745;52.276;10.528;2022-10-30T10:46:36;22.40;1.00
48936;DHT22;34745;52.276;10.528;2022-10-30T10:49:16;22.30;1.00
48936;DHT22;34745;52.276;10.528;2022-10-30T10:51:50;22.30;1.00
48936;DHT22;34745;52.276;10.528;2022-10-30T10:54:24;22.30;1.00
48936;DHT22;34745;52.276;10.528;2022-10-30T10:56:52;22.10;1.00
48936;DHT22;34745;52.276;10.528;2022-10-30T10:59:22;22.10;1.00
48936;DHT22;34745;52.276;10.528;2022-10-30T11:01:56;22.20;1.00
48936;DHT22;34745;52.276;10.528;2022-10-30T11:04:29;22.30;1.00
48936;DHT22;34745;52.276;10.528;2022-10-30T11:07:03;22.40;1.00
48936;DHT22;34745;52.276;10.528;2022-10-30T11:09:32;22.40;1.00
48936;DHT22;34745;52.276;10.528;2022-10-30T11:11:59;22.40;1.00
48936;DHT22;34745;52.276;10.528;2022-10-30T11:14:28;22.40;1.00
48936;DHT22;34745;52.276;10.528;2022-10-30T11:17:04;22.50;1.00
48936;DHT22;34745;52.276;10.528;2022-10-30T11:19:36;22.50;1.00
48936;DHT22;34745;52.276;10.528;2022-10-30T11:22:20;22.70;1.00
48936;DHT22;34745;52.276;10.528;2022-10-30T11:24:47;22.70;1.00
48936;DHT22;34745;52.276;10.528;2022-10-30T11:27:24;22.80;1.00
48936;DHT22;34745;52.276;10.528;2022-10-30T11:29:53;22.90;1.00
48936;DHT22;34745;52.276;10.528;2022-10-30T11:32:26;22.80;1.00
48936;DHT22;34745;52.276;10.528;2022-10-30T11:35:00;22.70;1.00
48936;DHT22;34745;52.276;10.528;2022-10-30T11:37:31;22.80;1.00
48936;DHT22;34745;52.276;10.528;2022-10-30T11:40:05;22.90;1.00
48936;DHT22;34745;52.276;10.528;2022-10-30T11:42:33;22.90;1.00
48936;DHT22;34745;52.276;10.528;2022-10-30T11:45:02;23.10;1.00
48936;DHT22;34745;52.276;10.528;2022-10-30T11:47:32;23.30;1.00
48936;DHT22;34745;52.276;10.528;2022-10-30T11:50:02;23.50;1.00
48936;DHT22;34745;52.276;10.528;2022-10-30T11:52:37;23.60;1.00
48936;DHT22;34745;52.276;10.528;2022-10-30T11:55:09;23.90;1.00
48936;DHT22;34745;52.276;10.528;2022-10-30T11:57:41;24.20;1.00
48936;DHT22;34745;52.276;10.528;2022-10-30T12:00:14;24.30;1.00
48936;DHT22;34745;52.276;10.528;2022-10-30T12:02:45;24.20;1.00
48936;DHT22;34745;52.276;10.528;2022-10-30T12:05:37;24.30;1.00
48936;DHT22;34745;52.276;10.528;2022-10-30T12:08:20;24.40;1.40
48936;DHT22;34745;52.276;10.528;2022-10-30T12:10:56;24.50;99.90
48936;DHT22;34745;52.276;10.528;2022-10-30T12:13:25;24.50;1.40
48936;DHT22;34745;52.276;10.528;2022-10-30T12:16:05;24.70;99.90
48936;DHT22;34745;52.276;10.528;2022-10-30T12:18:33;24.70;99.90
48936;DHT22;34745;52.276;10.528;2022-10-30T12:21:01;24.80;99.90
48936;DHT22;34745;52.276;10.528;2022-10-30T12:23:31;25.10;99.90
48936;DHT22;34745;52.276;10.528;2022-10-30T12:26:00;25.30;99.90
48936;DHT22;34745;52.276;10.528;2022-10-30T12:28:30;25.50;99.90
48936;DHT22;34745;52.276;10.528;2022-10-30T12:31:02;25.70;99.90
48936;DHT22;34745;52.276;10.528;2022-10-30T12:33:34;25.80;99.90
48936;DHT22;34745;52.276;10.528;2022-10-30T12:36:05;25.70;99.90
48936;DHT22;34745;52.276;10.528;2022-10-30T12:38:41;25.60;99.90
48936;DHT22;34745;52.276;10.528;2022-10-30T12:41:13;25.70;99.90
48936;DHT22;34745;52.276;10.528;2022-10-30T12:43:48;25.60;99.90
48936;DHT22;34745;52.276;10.528;2022-10-30T12:46:27;25.80;99.90
48936;DHT22;34745;52.276;10.528;2022-10-30T12:49:02;25.70;99.90
48936;DHT22;34745;52.276;10.528;2022-10-30T12:51:37;25.70;99.90
48936;DHT22;34745;52.276;10.528;2022-10-30T12:54:16;25.80;99.90
48936;DHT22;34745;52.276;10.528;2022-10-30T12:56:49;25.90;99.90
48936;DHT22;34745;52.276;10.528;2022-10-30T12:59:26;26.00;99.90
48936;DHT22;34745;52.276;10.528;2022-10-30T13:01:59;26.10;99.90
48936;DHT22;34745;52.276;10.528;2022-10-30T13:04:34;26.10;99.90
48936;DHT22;34745;52.276;10.528;2022-10-30T13:07:07;26.20;99.90
48936;DHT22;34745;52.276;10.528;2022-10-30T13:09:41;26.20;99.90
48936;DHT22;34745;52.276;10.528;2022-10-30T13:12:13;26.30;99.90
48936;DHT22;34745;52.276;10.528;2022-10-30T13:14:45;26.10;99.90
48936;DHT22;34745;52.276;10.528;2022-10-30T13:17:13;26.00;99.90
48936;DHT22;34745;52.276;10.528;2022-10-30T13:19:43;26.10;99.90
48936;DHT22;34745;52.276;10.528;2022-10-30T13:22:14;26.10;99.90
48936;DHT22;34745;52.276;10.528;2022-10-30T13:24:52;26.00;99.90
48936;DHT22;34745;52.276;10.528;2022-10-30T13:27:34;26.10;99.90
48936;DHT22;34745;52.276;10.528;2022-10-30T13:30:11;26.30;99.90
48936;DHT22;34745;52.276;10.528;2022-10-30T13:32:48;26.40;99.90
48936;DHT22;34745;52.276;10.528;2022-10-30T13:35:26;26.40;99.90
48936;DHT22;34745;52.276;10.528;2022-10-30T13:38:00;26.50;99.90
48936;DHT22;34745;52.276;10.528;2022-10-30T13:40:37;26.30;99.90
48936;DHT22;34745;52.276;10.528;2022-10-30T13:43:16;26.30;99.90
48936;DHT22;34745;52.276;10.528;2022-10-30T13:45:56;26.20;99.90
48936;DHT22;34745;52.276;10.528;2022-10-30T13:48:33;26.30;99.90
48936;DHT22;34745;52.276;10.528;2022-10-30T13:51:16;26.20;99.90
48936;DHT22;34745;52.276;10.528;2022-10-30T13:53:48;26.10;99.90
48936;DHT22;34745;52.276;10.528;2022-10-30T13:56:22;25.90;99.90
48936;DHT22;34745;52.276;10.528;2022-10-30T13:58:56;25.80;99.90
48936;DHT22;34745;52.276;10.528;2022-10-30T14:01:31;25.60;99.90
48936;DHT22;34745;52.276;10.528;2022-10-30T14:04:04;25.30;99.90
48936;DHT22;34745;52.276;10.528;2022-10-30T14:06:41;24.80;99.90
48936;DHT22;34745;52.276;10.528;2022-10-30T14:09:17;24.50;99.90
48936;DHT22;34745;52.276;10.528;2022-10-30T14:11:47;24.20;99.90
48936;DHT22;34745;52.276;10.528;2022-10-30T14:14:27;23.90;1.40
48936;DHT22;34745;52.276;10.528;2022-10-30T14:17:11;23.70;1.00
48936;DHT22;34745;52.276;10.528;2022-10-30T14:23:06;23.40;1.00
48936;DHT22;34745;52.276;10.528;2022-10-30T14:25:34;23.30;1.00
48936;DHT22;34745;52.276;10.528;2022-10-30T14:28:03;23.30;1.00
48936;DHT22;34745;52.276;10.528;2022-10-30T14:30:32;23.20;1.00
48936;DHT22;34745;52.276;10.528;2022-10-30T14:33:00;23.00;1.00
48936;DHT22;34745;52.276;10.528;2022-10-30T14:35:38;22.90;1.00
48936;DHT22;34745;52.276;10.528;2022-10-30T14:38:23;22.80;1.00
48936;DHT22;34745;52.276;10.528;2022-10-30T14:46:52;22.60;1.00
48936;DHT22;34745;52.276;10.528;2022-10-30T14:49:41;22.60;1.00
48936;DHT22;34745;52.276;10.528;2022-10-30T14:52:33;22.50;1.00
48936;DHT22;34745;52.276;10.528;2022-10-30T14:55:25;22.40;1.00
48936;DHT22;34745;52.276;10.528;2022-10-30T14:58:14;22.30;1.00
48936;DHT22;34745;52.276;10.528;2022-10-30T15:00:43;22.30;1.00
48936;DHT22;34745;52.276;10.528;2022-10-30T15:03:35;22.20;1.00
48936;DHT22;34745;52.276;10.528;2022-10-30T15:06:14;22.10;1.00
48936;DHT22;34745;52.276;10.528;2022-10-30T15:12:01;21.90;1.00
48936;DHT22;34745;52.276;10.528;2022-10-30T15:14:33;21.80;1.00
48936;DHT22;34745;52.276;10.528;2022-10-30T15:17:27;21.70;1.00
48936;DHT22;34745;52.276;10.528;2022-10-30T15:19:58;21.70;1.00
48936;DHT22;34745;52.276;10.528;2022-10-30T15:22:26;21.60;1.00
48936;DHT22;34745;52.276;10.528;2022-10-30T15:24:54;21.50;1.00
48936;DHT22;34745;52.276;10.528;2022-10-30T15:27:23;21.40;1.00
48936;DHT22;34745;52.276;10.528;2022-10-30T15:29:53;21.20;1.00
48936;DHT22;34745;52.276;10.528;2022-10-30T15:32:23;21.10;1.00
48936;DHT22;34745;52.276;10.528;2022-10-30T15:34:55;21.00;1.00
48936;DHT22;34745;52.276;10.528;2022-10-30T15:37:23;20.90;1.00
48936;DHT22;34745;52.276;10.528;2022-10-30T15:40:08;20.90;1.00
48936;DHT22;34745;52.276;10.528;2022-10-30T15:42:36;20.80;1.00
48936;DHT22;34745;52.276;10.528;2022-10-30T15:45:04;20.70;1.00
48936;DHT22;34745;52.276;10.528;2022-10-30T15:47:33;20.60;1.00
48936;DHT22;34745;52.276;10.528;2022-10-30T15:50:00;20.50;1.00
48936;DHT22;34745;52.276;10.528;2022-10-30T15:52:29;20.30;1.00
48936;DHT22;34745;52.276;10.528;2022-10-30T15:55:01;20.20;1.00
48936;DHT22;34745;52.276;10.528;2022-10-30T15:57:32;20.20;1.00
48936;DHT22;34745;52.276;10.528;2022-10-30T16:00:21;20.10;1.00
48936;DHT22;34745;52.276;10.528;2022-10-30T16:03:00;20.00;1.00
48936;DHT22;34745;52.276;10.528;2022-10-30T16:05:28;20.00;1.00
48936;DHT22;34745;52.276;10.528;2022-10-30T16:07:57;19.90;1.00
48936;DHT22;34745;52.276;10.528;2022-10-30T16:10:26;19.80;1.00
48936;DHT22;34745;52.276;10.528;2022-10-30T16:12:53;19.80;1.00
48936;DHT22;34745;52.276;10.528;2022-10-30T16:15:26;19.80;1.00